Time;durP1;ratioP1;P1;durP2;ratioP2;P2;SDS_P1;SDS_P2;PMS_P1;PMS_P2;Temp;Humidity;BMP_temperature;BMP_pressure;BME280_temperature;BME280_humidity;BME280_pressure;Samples;Min_cycle;Max_cycle;Signal;HPM_P1;HPM_P2
2021/04/13 00:01:15;;;;;;;3.10;2.90;;;8.50;51.60;;;;;;5027191;28;21152;-46
2021/04/13 00:04:05;;;;;;;5.63;4.10;;;8.50;51.60;;;;;;5005485;28;20459;-48
2021/04/13 00:06:48;;;;;;;5.70;4.23;;;8.50;51.40;;;;;;5025424;28;20440;-50
2021/04/13 00:09:25;;;;;;;4.90;4.43;;;8.50;51.40;;;;;;5030218;28;20451;-49
2021/04/13 00:11:55;;;;;;;11.03;4.67;;;8.50;51.30;;;;;;5021756;28;20829;-49
2021/04/13 00:14:26;;;;;;;4.07;3.67;;;8.50;51.50;;;;;;5029999;28;20471;-48
2021/04/13 00:16:53;;;;;;;6.27;4.00;;;8.60;51.40;;;;;;5028623;28;20436;-50
2021/04/13 00:19:29;;;;;;;4.33;3.73;;;8.60;51.20;;;;;;5029933;28;20428;-49
2021/04/13 00:21:55;;;;;;;4.73;4.30;;;8.60;51.00;;;;;;5020234;28;20799;-49
2021/04/13 00:24:23;;;;;;;4.47;4.07;;;8.60;50.90;;;;;;5007257;28;20927;-49
2021/04/13 00:26:56;;;;;;;11.37;4.33;;;8.60;51.00;;;;;;5025122;28;20953;-47
2021/04/13 00:29:25;;;;;;;5.17;4.00;;;8.60;51.20;;;;;;5025155;28;20432;-47
2021/04/13 00:32:02;;;;;;;5.60;3.90;;;8.50;51.10;;;;;;5020106;28;20891;-49
2021/04/13 00:35:34;;;;;;;4.80;4.00;;;8.50;51.30;;;;;;5027039;28;20435;-49
2021/04/13 00:37:32;;;;;;;5.20;4.50;;;8.40;51.20;;;;;;5013467;28;20940;-48
2021/04/13 00:40:19;;;;;;;6.07;4.40;;;8.40;51.30;;;;;;5020060;28;20431;-48
2021/04/13 00:42:45;;;;;;;11.50;4.33;;;8.30;51.20;;;;;;5022118;28;20959;-50
2021/04/13 00:45:17;;;;;;;4.77;3.90;;;8.30;51.30;;;;;;5024964;28;20470;-47
2021/04/13 00:47:46;;;;;;;4.70;4.10;;;8.20;51.60;;;;;;5027275;28;20198;-49
2021/04/13 00:50:29;;;;;;;4.00;3.60;;;8.10;51.60;;;;;;5019150;28;21177;-49
2021/04/13 00:52:57;;;;;;;6.90;4.17;;;8.20;51.70;;;;;;5023406;28;20487;-49
2021/04/13 00:55:29;;;;;;;5.40;3.80;;;8.10;51.60;;;;;;5025935;28;20433;-45
2021/04/13 00:58:07;;;;;;;5.00;3.60;;;8.10;51.60;;;;;;5025826;28;20431;-49
2021/04/13 01:00:46;;;;;;;4.70;3.80;;;8.10;51.90;;;;;;5015678;28;20935;-49
2021/04/13 01:03:13;;;;;;;4.93;3.90;;;8.10;51.80;;;;;;5029195;28;20502;-49
2021/04/13 01:06:02;;;;;;;5.47;4.40;;;8.00;51.80;;;;;;5020024;28;20448;-49
2021/04/13 01:08:37;;;;;;;5.37;3.83;;;8.00;52.00;;;;;;5025774;28;20822;-49
2021/04/13 01:11:15;;;;;;;5.20;3.70;;;8.00;52.00;;;;;;5023652;28;20514;-50
2021/04/13 01:13:56;;;;;;;5.43;3.70;;;8.00;51.90;;;;;;5023305;28;20494;-46
2021/04/13 01:16:25;;;;;;;6.10;4.47;;;7.90;52.00;;;;;;5025331;28;20502;-46
2021/04/13 01:18:55;;;;;;;3.90;3.50;;;7.90;52.00;;;;;;5023324;28;20479;-48
2021/04/13 01:21:41;;;;;;;4.97;3.70;;;7.90;52.00;;;;;;5027622;28;20528;-50
2021/04/13 01:24:12;;;;;;;4.20;3.80;;;7.80;52.20;;;;;;5021486;28;20452;-48
2021/04/13 01:26:44;;;;;;;6.03;3.90;;;7.90;52.20;;;;;;5022403;28;20951;-49
2021/04/13 01:29:11;;;;;;;7.43;4.63;;;7.90;52.20;;;;;;5020777;28;20441;-50
2021/04/13 01:34:24;;;;;;;4.00;3.70;;;7.90;52.20;;;;;;5020854;28;20492;-47
2021/04/13 01:37:16;;;;;;;4.60;3.80;;;7.90;52.10;;;;;;4995948;28;21015;-49
2021/04/13 01:40:15;;;;;;;4.20;3.80;;;7.90;52.10;;;;;;5023374;28;20932;-50
2021/04/13 01:42:31;;;;;;;4.40;4.00;;;7.90;52.70;;;;;;5022053;28;20448;-48
2021/04/13 01:45:14;;;;;;;5.00;4.03;;;7.90;52.10;;;;;;5031083;28;20471;-48
2021/04/13 01:47:41;;;;;;;4.33;3.93;;;8.00;52.00;;;;;;5020247;28;20527;-49
2021/04/13 01:50:18;;;;;;;3.87;3.47;;;7.90;51.90;;;;;;5019234;28;20459;-49
2021/04/13 01:52:48;;;;;;;5.83;3.90;;;7.80;52.20;;;;;;5027480;28;20483;-49
2021/04/13 01:55:16;;;;;;;4.63;4.10;;;7.80;52.30;;;;;;5019326;28;20802;-50
2021/04/13 01:57:52;;;;;;;5.00;4.50;;;7.70;52.40;;;;;;5022430;28;20529;-50
2021/04/13 02:00:29;;;;;;;7.03;4.37;;;7.50;52.60;;;;;;5020440;28;20458;-46
2021/04/13 02:03:08;;;;;;;4.73;4.23;;;7.40;53.00;;;;;;5021238;28;20884;-45
2021/04/13 02:05:40;;;;;;;4.80;4.07;;;7.40;53.20;;;;;;5019542;28;20432;-48
2021/04/13 02:08:23;;;;;;;3.83;3.47;;;7.40;53.20;;;;;;5025667;28;20440;-49
2021/04/13 02:11:15;;;;;;;5.90;4.23;;;7.40;53.10;;;;;;5020034;28;20444;-49
2021/04/13 02:13:50;;;;;;;4.27;3.70;;;7.10;53.20;;;;;;5011862;28;20843;-50
2021/04/13 02:16:30;;;;;;;4.23;3.63;;;6.90;53.80;;;;;;5024843;28;20483;-50
2021/04/13 02:18:56;;;;;;;6.93;4.70;;;7.00;54.00;;;;;;5025096;28;20468;-48
2021/04/13 02:21:29;;;;;;;5.20;4.57;;;7.10;53.80;;;;;;5026141;28;20429;-50
2021/04/13 02:24:00;;;;;;;6.30;3.67;;;7.20;53.50;;;;;;5019703;28;20452;-50
2021/04/13 02:26:26;;;;;;;4.20;3.80;;;7.10;53.20;;;;;;5026960;28;20443;-49
2021/04/13 02:28:56;;;;;;;5.37;4.10;;;7.10;53.50;;;;;;5035567;28;20443;-47
2021/04/13 02:34:23;;;;;;;4.50;3.53;;;7.40;53.40;;;;;;5030639;28;20463;-47
2021/04/13 02:36:55;;;;;;;7.10;3.67;;;7.30;53.30;;;;;;5026979;28;20486;-46
2021/04/13 02:39:25;;;;;;;7.80;4.20;;;7.30;53.20;;;;;;5026428;28;20485;-49
2021/04/13 02:42:17;;;;;;;4.90;3.97;;;7.20;53.10;;;;;;5025517;28;20463;-47
2021/04/13 02:44:54;;;;;;;5.80;4.60;;;7.10;53.40;;;;;;5021972;28;20444;-48
2021/04/13 02:47:21;;;;;;;4.17;3.70;;;6.90;53.60;;;;;;5019986;28;20475;-49
2021/04/13 02:49:47;;;;;;;5.33;4.83;;;7.10;53.90;;;;;;5027055;28;20575;-49
2021/04/13 02:52:21;;;;;;;6.70;4.53;;;7.10;53.60;;;;;;5022620;28;20514;-50
2021/04/13 02:54:54;;;;;;;5.87;4.57;;;7.10;53.30;;;;;;5023637;28;20428;-49
2021/04/13 02:57:28;;;;;;;5.63;4.60;;;7.20;53.20;;;;;;5021724;28;20485;-49
2021/04/13 03:00:07;;;;;;;6.20;5.07;;;7.20;53.10;;;;;;5020660;28;20954;-48
2021/04/13 03:02:50;;;;;;;5.30;4.50;;;7.20;52.90;;;;;;5022475;28;20436;-49
2021/04/13 03:05:20;;;;;;;6.70;4.23;;;7.20;52.90;;;;;;5018405;28;20433;-48
2021/04/13 03:07:46;;;;;;;4.57;4.17;;;7.20;52.90;;;;;;5019352;28;20486;-49
2021/04/13 03:10:15;;;;;;;5.30;4.43;;;7.20;53.00;;;;;;5026883;28;20483;-49
2021/04/13 03:12:45;;;;;;;4.33;3.93;;;7.20;53.10;;;;;;5020772;28;20502;-49
2021/04/13 03:15:19;;;;;;;5.27;4.20;;;7.20;53.20;;;;;;5025531;28;20428;-49
2021/04/13 03:17:56;;;;;;;6.23;4.13;;;7.20;53.20;;;;;;5023063;28;20482;-48
2021/04/13 03:20:25;;;;;;;4.67;4.23;;;7.20;53.30;;;;;;5023561;28;20439;-49
2021/04/13 03:22:54;;;;;;;7.97;4.27;;;7.10;53.10;;;;;;5026265;28;20520;-50
2021/04/13 03:25:23;;;;;;;3.80;3.40;;;7.10;53.20;;;;;;5032536;28;20531;-50
2021/04/13 03:27:50;;;;;;;7.10;4.37;;;7.10;53.30;;;;;;5019575;28;20476;-49
2021/04/13 03:30:25;;;;;;;5.70;3.73;;;7.10;53.40;;;;;;5027731;28;20490;-48
2021/04/13 03:32:58;;;;;;;5.97;4.60;;;7.10;53.20;;;;;;5026841;28;20896;-48
2021/04/13 03:35:26;;;;;;;5.63;4.77;;;7.10;53.10;;;;;;5026803;28;20444;-50
2021/04/13 03:37:54;;;;;;;4.27;3.87;;;7.20;53.20;;;;;;5028460;28;20451;-50
2021/04/13 03:40:24;;;;;;;8.50;4.47;;;7.20;53.20;;;;;;5028633;28;20454;-48
2021/04/13 03:43:02;;;;;;;5.27;4.50;;;7.10;53.10;;;;;;5014885;28;20433;-49
2021/04/13 03:45:30;;;;;;;4.53;3.97;;;7.00;53.30;;;;;;5017933;28;21346;-49
2021/04/13 03:47:59;;;;;;;4.00;3.47;;;6.90;53.60;;;;;;5025275;28;20432;-49
2021/04/13 03:50:31;;;;;;;4.93;4.00;;;6.90;53.60;;;;;;5020634;28;20432;-49
2021/04/13 03:53:09;;;;;;;5.43;4.50;;;6.90;53.60;;;;;;5017641;28;20527;-49
2021/04/13 03:55:35;;;;;;;5.23;4.33;;;6.90;53.50;;;;;;5014979;28;20453;-48
2021/04/13 03:58:16;;;;;;;5.87;3.87;;;7.00;53.40;;;;;;5021568;28;20443;-48
2021/04/13 04:00:42;;;;;;;4.70;4.10;;;7.00;53.30;;;;;;5025217;28;20515;-49
2021/04/13 04:03:09;;;;;;;4.40;3.97;;;7.10;53.20;;;;;;5026762;28;21016;-49
2021/04/13 04:05:46;;;;;;;5.00;3.73;;;7.10;53.20;;;;;;5024100;28;20507;-50
2021/04/13 04:08:20;;;;;;;6.50;4.43;;;7.00;53.10;;;;;;5028152;28;20449;-48
2021/04/13 04:10:46;;;;;;;6.23;4.60;;;7.00;53.10;;;;;;5022291;28;20920;-50
2021/04/13 04:13:17;;;;;;;5.80;4.60;;;7.00;53.10;;;;;;5031831;28;20479;-46
2021/04/13 04:15:46;;;;;;;6.37;4.83;;;6.90;53.10;;;;;;5018304;28;20213;-48
2021/04/13 04:18:28;;;;;;;5.23;3.87;;;6.90;53.50;;;;;;5017979;28;20477;-49
2021/04/13 04:20:54;;;;;;;4.90;4.40;;;6.90;53.40;;;;;;5023689;28;20443;-49
2021/04/13 04:23:31;;;;;;;5.00;4.50;;;6.90;53.30;;;;;;5024381;28;20899;-48
2021/04/13 04:26:05;;;;;;;4.90;4.30;;;6.90;53.30;;;;;;5027351;28;20432;-49
2021/04/13 04:28:40;;;;;;;5.90;4.53;;;6.90;53.20;;;;;;5024394;28;20530;-50
2021/04/13 04:31:37;;;;;;;6.50;5.00;;;6.90;53.30;;;;;;5017795;28;20437;-48
2021/04/13 04:34:14;;;;;;;5.50;4.60;;;6.80;53.40;;;;;;5019784;28;21004;-48
2021/04/13 04:36:44;;;;;;;5.90;5.40;;;6.80;53.40;;;;;;5022885;28;21151;-47
2021/04/13 04:39:27;;;;;;;7.80;4.80;;;6.90;53.30;;;;;;5027487;28;20432;-49
2021/04/13 04:41:55;;;;;;;5.70;4.50;;;6.80;53.20;;;;;;5023310;28;20451;-49
2021/04/13 04:44:25;;;;;;;6.87;4.30;;;6.90;53.30;;;;;;5027626;28;20432;-48
2021/04/13 04:46:53;;;;;;;4.63;4.23;;;6.80;53.20;;;;;;5021308;28;20832;-49
2021/04/13 04:49:19;;;;;;;7.30;4.47;;;6.90;53.40;;;;;;5021887;28;20447;-49
2021/04/13 04:51:54;;;;;;;4.80;3.90;;;6.90;53.90;;;;;;5023347;28;20445;-50
2021/04/13 04:54:22;;;;;;;5.83;4.30;;;6.90;53.10;;;;;;5024332;28;20197;-48
2021/04/13 04:56:48;;;;;;;6.07;3.83;;;6.80;53.00;;;;;;5022263;28;20467;-49
2021/04/13 04:59:14;;;;;;;7.00;4.67;;;6.80;52.80;;;;;;5032181;28;20481;-49
2021/04/13 05:01:39;;;;;;;4.77;4.30;;;6.80;52.80;;;;;;5030488;28;20435;-49
2021/04/13 05:04:05;;;;;;;4.80;4.30;;;6.70;52.80;;;;;;5028875;28;20251;-50
2021/04/13 05:06:31;;;;;;;5.30;4.80;;;6.70;53.10;;;;;;5016370;28;20201;-49
2021/04/13 05:08:57;;;;;;;5.10;4.40;;;6.60;53.20;;;;;;5014309;28;20308;-47
2021/04/13 05:11:23;;;;;;;4.63;4.00;;;6.60;53.40;;;;;;5020681;28;20194;-44
2021/04/13 05:13:50;;;;;;;4.90;4.30;;;6.80;55.30;;;;;;5015205;28;20669;-48
2021/04/13 05:16:16;;;;;;;5.63;4.20;;;7.20;56.00;;;;;;5022133;28;20429;-44
2021/04/13 05:18:41;;;;;;;4.57;3.97;;;7.60;54.70;;;;;;5028552;28;20476;-45
2021/04/13 05:21:08;;;;;;;5.87;4.70;;;8.00;54.20;;;;;;5022796;28;20650;-49
2021/04/13 05:23:34;;;;;;;4.30;3.53;;;8.30;52.70;;;;;;5013113;28;20208;-47
2021/04/13 05:26:00;;;;;;;5.80;5.20;;;8.60;52.10;;;;;;5028889;28;20421;-46
2021/04/13 05:28:26;;;;;;;4.70;4.20;;;8.90;51.80;;;;;;5025180;28;20433;-47
2021/04/13 05:30:52;;;;;;;5.03;4.53;;;9.10;50.10;;;;;;5025103;28;20436;-48
2021/04/13 05:33:19;;;;;;;8.80;7.20;;;9.20;49.40;;;;;;5019841;28;20545;-49
2021/04/13 05:35:44;;;;;;;11.20;8.60;;;9.20;48.60;;;;;;5024166;28;20272;-48
2021/04/13 05:38:32;;;;;;;7.10;5.80;;;9.10;48.50;;;;;;5027865;28;22295;-46
2021/04/13 05:41:00;;;;;;;6.73;5.30;;;9.00;48.80;;;;;;5025569;28;20223;-45
2021/04/13 05:43:26;;;;;;;6.30;4.37;;;9.00;49.80;;;;;;5027347;28;20428;-46
2021/04/13 05:45:56;;;;;;;5.47;4.93;;;9.10;49.60;;;;;;5022320;28;20490;-45
2021/04/13 05:48:21;;;;;;;6.00;5.33;;;9.20;50.00;;;;;;5025801;28;20196;-48
2021/04/13 05:50:47;;;;;;;8.83;5.90;;;9.40;49.90;;;;;;5025532;28;20440;-48
2021/04/13 05:53:14;;;;;;;25.87;15.17;;;9.50;49.60;;;;;;5019593;28;20225;-46
2021/04/13 05:55:40;;;;;;;19.23;11.73;;;9.50;48.70;;;;;;5019799;28;20538;-48
2021/04/13 05:58:33;;;;;;;16.40;11.00;;;9.30;49.40;;;;;;5027317;28;20424;-46
2021/04/13 06:01:05;;;;;;;9.63;7.37;;;9.40;49.00;;;;;;5011718;28;20846;-46
2021/04/13 06:03:32;;;;;;;10.30;7.27;;;9.30;49.30;;;;;;5025654;28;20431;-46
2021/04/13 06:05:58;;;;;;;14.10;7.83;;;9.50;49.40;;;;;;5022828;28;20447;-46
2021/04/13 06:08:24;;;;;;;11.33;7.40;;;9.80;48.90;;;;;;5025769;28;20439;-46
2021/04/13 06:10:53;;;;;;;9.40;8.10;;;10.00;47.70;;;;;;5025221;28;20340;-45
2021/04/13 06:13:22;;;;;;;10.30;6.87;;;10.20;47.30;;;;;;5024693;28;20498;-47
2021/04/13 06:15:50;;;;;;;8.90;8.00;;;10.40;46.90;;;;;;5022984;28;20439;-47
2021/04/13 06:18:16;;;;;;;7.00;6.27;;;10.60;46.70;;;;;;5028910;28;20482;-47
2021/04/13 06:20:42;;;;;;;7.83;7.00;;;10.70;46.10;;;;;;5030673;28;20420;-47
2021/04/13 06:23:07;;;;;;;8.60;7.17;;;10.80;45.90;;;;;;5026683;28;20208;-47
2021/04/13 06:25:33;;;;;;;8.53;7.00;;;11.00;45.70;;;;;;5020224;28;20432;-46
2021/04/13 06:28:00;;;;;;;9.03;6.90;;;11.10;45.50;;;;;;5015453;28;20190;-49
2021/04/13 06:30:27;;;;;;;7.47;6.70;;;11.20;45.40;;;;;;5026124;28;20193;-49
2021/04/13 06:32:54;;;;;;;11.13;7.40;;;11.30;45.30;;;;;;5029430;28;20487;-46
2021/04/13 06:35:21;;;;;;;8.67;6.70;;;11.50;45.00;;;;;;5027213;28;20939;-49
2021/04/13 06:37:48;;;;;;;8.40;7.60;;;11.60;44.70;;;;;;5030248;28;20420;-49
2021/04/13 06:40:43;;;;;;;8.40;7.20;;;11.70;44.70;;;;;;5005143;28;20794;-49
2021/04/13 06:43:42;;;;;;;10.97;7.10;;;11.80;44.40;;;;;;5024274;28;20432;-46
2021/04/13 06:46:20;;;;;;;9.13;7.03;;;11.90;44.30;;;;;;5014107;28;20817;-49
2021/04/13 06:48:51;;;;;;;8.60;6.80;;;11.90;44.40;;;;;;5031527;28;20459;-49
2021/04/13 06:51:29;;;;;;;8.97;8.07;;;11.90;44.30;;;;;;5023255;28;20440;-48
2021/04/13 06:54:32;;;;;;;9.30;8.40;;;12.00;44.20;;;;;;5017478;28;20479;-48
2021/04/13 06:56:57;;;;;;;8.73;7.47;;;12.00;44.20;;;;;;5034520;28;20424;-45
2021/04/13 07:00:05;;;;;;;8.80;6.90;;;12.10;44.20;;;;;;5034922;28;20487;-48
2021/04/13 07:03:03;;;;;;;8.83;7.10;;;12.20;44.10;;;;;;5026206;28;20201;-49
2021/04/13 07:05:34;;;;;;;9.30;7.87;;;12.40;43.90;;;;;;5034071;28;20448;-46
2021/04/13 07:08:25;;;;;;;10.23;8.40;;;12.40;43.50;;;;;;5034549;28;20491;-45
2021/04/13 07:10:56;;;;;;;9.50;8.60;;;12.40;44.30;;;;;;5034439;28;20807;-46
2021/04/13 07:13:25;;;;;;;8.77;7.87;;;12.50;43.90;;;;;;5033593;28;20487;-45
2021/04/13 07:15:57;;;;;;;8.77;7.87;;;12.50;44.00;;;;;;5016293;28;20447;-46
2021/04/13 07:18:38;;;;;;;8.03;7.10;;;12.50;43.30;;;;;;5034578;28;20479;-48
2021/04/13 07:21:23;;;;;;;7.90;7.20;;;12.20;43.40;;;;;;5032958;28;20440;-46
2021/04/13 07:24:04;;;;;;;8.43;7.37;;;12.00;43.10;;;;;;5034549;28;20431;-49
2021/04/13 07:26:35;;;;;;;10.77;7.30;;;12.00;44.00;;;;;;5033855;28;20974;-48
2021/04/13 07:29:23;;;;;;;11.13;8.37;;;12.30;44.20;;;;;;5034542;28;20462;-46
2021/04/13 07:31:59;;;;;;;8.30;7.40;;;12.40;43.80;;;;;;5033862;28;20439;-46
2021/04/13 07:34:25;;;;;;;9.30;6.80;;;12.60;44.80;;;;;;5034158;28;20435;-49
2021/04/13 07:37:28;;;;;;;9.53;7.57;;;12.80;44.10;;;;;;5033844;28;20428;-46
2021/04/13 07:39:55;;;;;;;8.77;7.97;;;13.00;43.50;;;;;;5034515;28;20585;-49
2021/04/13 07:42:55;;;;;;;7.00;6.30;;;13.20;43.30;;;;;;5033689;28;20428;-49
2021/04/13 07:45:59;;;;;;;9.00;7.93;;;13.30;43.70;;;;;;5027714;28;20864;-46
2021/04/13 07:48:54;;;;;;;11.47;8.80;;;13.50;42.60;;;;;;4995031;28;20867;-48
2021/04/13 07:51:39;;;;;;;10.43;9.33;;;13.50;42.50;;;;;;5015928;28;20943;-47
2021/04/13 07:54:15;;;;;;;9.57;8.40;;;13.60;42.10;;;;;;5022771;28;20444;-49
2021/04/13 07:56:56;;;;;;;10.97;9.30;;;13.70;42.70;;;;;;5030321;28;20528;-47
2021/04/13 07:59:24;;;;;;;8.20;7.40;;;13.90;42.50;;;;;;5017913;28;20773;-47
2021/04/13 08:01:50;;;;;;;8.13;7.50;;;14.00;42.70;;;;;;5026770;28;20467;-48
2021/04/13 08:04:22;;;;;;;8.83;7.93;;;14.20;42.30;;;;;;5031012;28;20432;-49
2021/04/13 08:06:55;;;;;;;13.33;8.43;;;14.30;41.40;;;;;;5025000;28;20186;-49
2021/04/13 08:09:20;;;;;;;9.70;8.70;;;14.50;41.00;;;;;;5023314;28;20928;-48
2021/04/13 08:12:13;;;;;;;9.30;8.30;;;14.60;40.10;;;;;;5023532;28;20494;-47
2021/04/13 08:14:46;;;;;;;10.37;9.00;;;14.70;40.90;;;;;;5011276;28;20656;-45
2021/04/13 08:17:34;;;;;;;9.00;7.67;;;14.70;40.90;;;;;;5035914;28;20471;-47
2021/04/13 08:20:05;;;;;;;9.90;9.00;;;14.70;41.20;;;;;;5030724;28;20458;-49
2021/04/13 08:23:11;;;;;;;10.03;9.10;;;14.70;40.00;;;;;;5026722;28;20432;-48
2021/04/13 08:25:43;;;;;;;9.07;8.27;;;14.80;40.00;;;;;;4920955;29;20518;-48
2021/04/13 08:28:21;;;;;;;8.60;7.80;;;14.90;39.60;;;;;;4933404;29;20448;-46
2021/04/13 08:34:18;;;;;;;9.03;8.10;;;15.10;40.10;;;;;;5017867;28;20583;-46
2021/04/13 08:36:51;;;;;;;8.00;7.30;;;15.20;39.80;;;;;;4980305;28;20432;-44
2021/04/13 08:40:01;;;;;;;8.37;7.57;;;15.20;39.50;;;;;;5030114;28;20435;-45
2021/04/13 08:42:35;;;;;;;9.10;8.40;;;15.30;39.90;;;;;;5024059;28;20448;-44
2021/04/13 08:45:13;;;;;;;7.20;6.60;;;15.30;39.60;;;;;;5027464;28;20468;-48
2021/04/13 08:47:46;;;;;;;7.83;7.13;;;15.20;38.50;;;;;;5020547;28;20467;-44
2021/04/13 08:50:40;;;;;;;8.03;7.33;;;15.30;38.50;;;;;;5020252;28;20437;-46
2021/04/13 08:53:30;;;;;;;7.60;6.90;;;15.50;38.30;;;;;;5031652;28;20479;-49
2021/04/13 08:56:21;;;;;;;9.20;7.77;;;15.20;37.20;;;;;;5025166;28;20443;-45
2021/04/13 08:58:51;;;;;;;8.07;7.30;;;15.30;37.10;;;;;;5027133;28;20559;-46
2021/04/13 09:01:28;;;;;;;8.80;7.90;;;15.30;36.10;;;;;;5030726;28;20444;-48
2021/04/13 09:03:55;;;;;;;8.70;7.63;;;15.30;37.10;;;;;;5029779;28;20451;-45
2021/04/13 09:06:47;;;;;;;8.77;7.97;;;15.30;36.90;;;;;;5028655;28;20448;-45
2021/04/13 09:09:35;;;;;;;7.40;6.73;;;15.50;36.80;;;;;;5026980;28;20795;-46
2021/04/13 09:12:33;;;;;;;7.87;7.23;;;15.60;35.50;;;;;;5026498;28;20527;-49
2021/04/13 09:15:06;;;;;;;10.50;7.70;;;15.70;36.30;;;;;;5017676;28;20451;-46
2021/04/13 09:17:42;;;;;;;8.83;7.97;;;15.80;35.90;;;;;;5020829;28;20481;-47
2021/04/13 09:20:11;;;;;;;9.60;8.70;;;15.80;35.80;;;;;;5018393;28;20546;-49
2021/04/13 09:22:52;;;;;;;9.53;8.60;;;15.50;36.40;;;;;;5018965;28;20982;-49
2021/04/13 09:25:33;;;;;;;8.83;8.03;;;15.50;36.60;;;;;;5028390;28;20474;-47
2021/04/13 09:28:02;;;;;;;9.00;8.10;;;15.50;37.20;;;;;;5020412;28;20531;-49
2021/04/13 09:30:35;;;;;;;7.13;6.43;;;15.60;36.60;;;;;;5026328;28;20428;-49
2021/04/13 09:33:13;;;;;;;8.83;8.03;;;15.50;35.60;;;;;;5019412;28;20487;-48
2021/04/13 09:35:58;;;;;;;8.70;7.80;;;15.70;34.60;;;;;;5026108;28;20489;-49
2021/04/13 09:38:48;;;;;;;7.17;6.50;;;15.80;35.40;;;;;;5024141;28;20829;-44
2021/04/13 09:41:43;;;;;;;8.07;6.60;;;16.00;34.90;;;;;;5022044;28;20440;-44
2021/04/13 09:44:24;;;;;;;7.87;7.27;;;16.10;35.10;;;;;;5027261;28;20475;-46
2021/04/13 09:47:15;;;;;;;8.63;7.73;;;16.00;33.50;;;;;;5017117;28;20456;-45
2021/04/13 09:50:09;;;;;;;10.37;7.90;;;16.00;33.90;;;;;;5015412;28;20449;-45
2021/04/13 09:52:56;;;;;;;6.70;6.10;;;15.90;33.30;;;;;;5019557;28;20499;-44
2021/04/13 09:55:49;;;;;;;7.00;6.40;;;15.80;33.00;;;;;;5028138;28;20523;-43
2021/04/13 09:58:43;;;;;;;7.17;6.50;;;15.70;33.40;;;;;;5021315;28;20440;-46
2021/04/13 10:01:21;;;;;;;7.00;6.33;;;15.80;35.10;;;;;;5023145;28;20528;-45
2021/04/13 10:04:11;;;;;;;6.87;6.23;;;15.80;35.20;;;;;;5031262;28;20546;-45
2021/04/13 10:06:44;;;;;;;5.97;5.33;;;16.00;34.60;;;;;;5022317;28;20483;-46
2021/04/13 10:09:23;;;;;;;5.67;5.00;;;16.30;32.60;;;;;;5026924;28;20434;-45
2021/04/13 10:12:12;;;;;;;5.03;4.63;;;16.40;32.20;;;;;;5037179;28;20437;-45
2021/04/13 10:15:15;;;;;;;5.53;5.07;;;16.20;32.80;;;;;;5008854;28;20441;-43
2021/04/13 10:18:17;;;;;;;5.93;5.33;;;16.10;31.60;;;;;;5029928;28;21001;-44
2021/04/13 10:21:00;;;;;;;7.80;7.10;;;16.10;31.10;;;;;;5041814;28;20465;-44
2021/04/13 10:23:44;;;;;;;5.97;5.40;;;16.30;31.30;;;;;;5034318;28;20443;-44
2021/04/13 10:26:15;;;;;;;5.17;4.77;;;16.20;31.30;;;;;;5032126;28;20442;-45
2021/04/13 10:29:18;;;;;;;4.80;4.50;;;16.30;31.70;;;;;;5034167;28;21015;-43
2021/04/13 10:32:11;;;;;;;6.27;5.77;;;16.50;29.80;;;;;;5031846;28;20798;-46
2021/04/13 10:35:13;;;;;;;5.60;5.10;;;16.50;30.00;;;;;;5042901;28;20460;-45
2021/04/13 10:38:16;;;;;;;6.07;5.60;;;16.70;30.00;;;;;;5035973;28;20504;-48
2021/04/13 10:41:09;;;;;;;7.10;6.40;;;16.90;29.00;;;;;;5036470;28;20815;-45
2021/04/13 10:44:15;;;;;;;5.77;5.27;;;17.10;30.00;;;;;;5039433;28;20539;-44
2021/04/13 10:47:05;;;;;;;5.70;5.20;;;17.30;30.30;;;;;;5038224;28;20456;-46
2021/04/13 10:49:53;;;;;;;5.10;4.60;;;17.60;29.50;;;;;;5039169;28;20953;-47
2021/04/13 10:52:56;;;;;;;6.87;6.17;;;17.70;28.30;;;;;;5044877;28;20485;-48
2021/04/13 10:56:04;;;;;;;4.50;4.10;;;18.00;28.90;;;;;;5040845;28;20443;-45
2021/04/13 10:58:35;;;;;;;3.90;3.60;;;18.20;27.20;;;;;;5043057;28;20448;-48
2021/04/13 11:01:21;;;;;;;4.10;3.80;;;18.40;26.20;;;;;;5045401;28;20427;-47
2021/04/13 11:04:11;;;;;;;4.43;4.03;;;18.50;26.30;;;;;;5039488;28;20839;-43
2021/04/13 11:07:10;;;;;;;5.20;4.70;;;18.40;26.20;;;;;;5029415;28;20861;-46
2021/04/13 11:10:23;;;;;;;6.07;5.57;;;18.30;25.60;;;;;;5049283;28;20850;-48
2021/04/13 11:13:00;;;;;;;4.80;4.17;;;18.10;26.00;;;;;;4996656;28;20487;-46
2021/04/13 11:15:58;;;;;;;5.20;4.70;;;18.30;26.90;;;;;;5047366;28;20480;-44
2021/04/13 11:18:45;;;;;;;5.70;5.20;;;18.20;27.00;;;;;;5046933;28;20486;-44
2021/04/13 11:21:17;;;;;;;5.40;5.00;;;18.30;26.70;;;;;;5043380;28;20899;-46
2021/04/13 11:24:24;;;;;;;5.20;4.80;;;18.30;28.00;;;;;;5035499;28;20881;-44
2021/04/13 11:27:09;;;;;;;5.37;4.97;;;18.20;28.40;;;;;;5005281;28;20496;-45
2021/04/13 11:29:47;;;;;;;6.73;5.90;;;18.10;26.50;;;;;;5042572;28;20439;-45
2021/04/13 11:32:39;;;;;;;5.80;5.40;;;18.00;27.90;;;;;;5042976;28;20499;-46
2021/04/13 11:35:07;;;;;;;7.30;6.60;;;17.90;28.80;;;;;;5037295;28;20438;-44
2021/04/13 11:37:36;;;;;;;5.53;5.10;;;17.80;28.70;;;;;;5040603;28;20804;-46
2021/04/13 11:40:20;;;;;;;5.50;5.00;;;17.90;28.80;;;;;;5039322;28;20428;-44
2021/04/13 11:42:52;;;;;;;9.80;6.53;;;18.00;28.20;;;;;;5047439;28;20557;-46
2021/04/13 11:45:26;;;;;;;7.40;5.80;;;18.20;28.60;;;;;;5045139;28;20438;-44
2021/04/13 11:48:10;;;;;;;5.90;5.27;;;18.20;29.30;;;;;;5039379;28;20438;-46
2021/04/13 11:51:02;;;;;;;6.77;6.17;;;18.50;28.90;;;;;;5047903;28;20439;-43
2021/04/13 11:53:43;;;;;;;5.90;5.40;;;18.60;27.50;;;;;;5026328;28;20616;-48
2021/04/13 11:56:23;;;;;;;8.23;5.97;;;18.60;29.00;;;;;;5030505;28;20871;-45
2021/04/13 11:59:17;;;;;;;11.43;10.23;;;18.90;29.40;;;;;;5039968;28;20933;-48
2021/04/13 12:01:50;;;;;;;5.70;5.30;;;19.10;28.30;;;;;;5017967;28;20947;-46
2021/04/13 12:04:22;;;;;;;6.03;5.53;;;19.00;28.30;;;;;;5046990;28;20790;-45
2021/04/13 12:06:58;;;;;;;5.40;4.90;;;18.50;27.60;;;;;;5047632;28;20530;-44
2021/04/13 12:09:42;;;;;;;5.47;4.87;;;17.40;29.50;;;;;;5040954;28;20422;-43
2021/04/13 12:12:31;;;;;;;6.77;6.10;;;17.10;29.90;;;;;;5047203;28;20442;-45
2021/04/13 12:15:20;;;;;;;7.80;7.00;;;16.50;30.70;;;;;;5032430;28;20905;-43
2021/04/13 12:17:50;;;;;;;19.73;15.07;;;16.40;31.00;;;;;;5015981;28;20466;-44
2021/04/13 12:20:32;;;;;;;5.73;4.57;;;16.50;31.40;;;;;;5040591;28;20795;-44
2021/04/13 12:22:58;;;;;;;4.93;4.40;;;16.60;30.70;;;;;;5038897;28;20436;-47
2021/04/13 12:25:43;;;;;;;5.63;5.13;;;16.60;30.00;;;;;;5040623;28;20436;-47
2021/04/13 12:28:29;;;;;;;5.37;4.97;;;16.80;29.80;;;;;;5043000;28;20447;-46
2021/04/13 12:31:22;;;;;;;4.73;4.33;;;17.00;29.40;;;;;;5032615;28;20445;-44
2021/04/13 12:33:49;;;;;;;4.93;4.53;;;17.10;28.70;;;;;;5035537;28;20516;-46
2021/04/13 12:36:40;;;;;;;4.93;4.40;;;17.40;28.60;;;;;;5042574;28;20787;-44
2021/04/13 12:39:06;;;;;;;4.27;3.93;;;17.50;27.80;;;;;;5037618;28;20426;-46
2021/04/13 12:41:52;;;;;;;5.17;4.67;;;17.50;27.10;;;;;;5040379;28;20431;-43
2021/04/13 12:44:18;;;;;;;4.63;4.20;;;17.50;25.90;;;;;;5043510;28;20439;-45
2021/04/13 12:46:47;;;;;;;4.30;4.00;;;17.20;26.90;;;;;;5045479;28;20427;-44
2021/04/13 12:49:13;;;;;;;3.97;3.53;;;17.20;26.70;;;;;;5036123;28;20191;-44
2021/04/13 12:51:58;;;;;;;3.60;3.40;;;17.40;27.00;;;;;;5041968;28;20427;-47
2021/04/13 12:54:44;;;;;;;4.40;4.00;;;17.60;27.90;;;;;;5040116;28;20205;-43
2021/04/13 12:57:21;;;;;;;3.67;3.37;;;17.60;27.00;;;;;;5040824;28;20439;-46
2021/04/13 12:59:49;;;;;;;4.20;3.80;;;17.80;26.40;;;;;;5034459;28;20919;-44
2021/04/13 13:02:49;;;;;;;4.57;4.17;;;17.80;26.70;;;;;;5029276;28;20443;-44
2021/04/13 13:05:21;;;;;;;4.00;3.70;;;18.00;26.50;;;;;;4997017;28;20529;-47
2021/04/13 13:07:59;;;;;;;4.30;3.90;;;18.10;26.40;;;;;;5037885;28;20439;-45
2021/04/13 13:10:27;;;;;;;3.93;3.63;;;18.20;26.60;;;;;;5038424;28;20448;-47
2021/04/13 13:12:59;;;;;;;3.10;2.90;;;17.90;26.40;;;;;;5040583;28;20861;-44
2021/04/13 13:15:31;;;;;;;3.50;3.20;;;17.70;26.70;;;;;;5024598;28;20444;-48
2021/04/13 13:18:12;;;;;;;2.57;2.37;;;17.30;27.70;;;;;;5027332;28;20476;-45
2021/04/13 13:20:37;;;;;;;3.47;2.67;;;16.80;27.80;;;;;;5022689;28;20462;-43
2021/04/13 13:23:03;;;;;;;2.67;2.47;;;16.30;28.30;;;;;;5030236;28;20425;-48
2021/04/13 13:25:33;;;;;;;4.03;2.60;;;16.20;27.10;;;;;;5023881;28;20932;-45
2021/04/13 13:28:20;;;;;;;2.37;2.20;;;16.20;26.60;;;;;;5018146;28;20190;-47
2021/04/13 13:30:47;;;;;;;2.60;2.40;;;16.40;25.90;;;;;;5020919;28;20448;-45
2021/04/13 13:33:14;;;;;;;3.80;2.40;;;16.50;26.00;;;;;;5029975;28;20598;-44
2021/04/13 13:35:40;;;;;;;3.27;2.10;;;16.80;26.40;;;;;;5018913;28;20444;-47
2021/04/13 13:38:06;;;;;;;3.20;2.60;;;17.10;25.80;;;;;;5019039;28;20510;-45
2021/04/13 13:40:33;;;;;;;3.70;2.70;;;17.10;25.50;;;;;;5022018;28;20444;-44
2021/04/13 13:43:08;;;;;;;2.80;2.60;;;17.10;26.30;;;;;;5022629;28;20448;-50
2021/04/13 13:45:35;;;;;;;2.53;2.33;;;17.20;26.10;;;;;;5020678;28;20436;-46
2021/04/13 13:48:01;;;;;;;3.10;2.40;;;17.30;25.50;;;;;;5016893;28;20443;-44
2021/04/13 13:50:34;;;;;;;3.53;2.90;;;17.50;26.40;;;;;;5029032;28;20438;-48